Austwell, Texas
Current Conditions -  °F | °C
As of 4:15 PM on Monday 20 Oct 2014 (Local Time) from KPKV Reporting Station
Scattered Clouds Scattered Clouds  
Wind Chill: 82°   Ceiling: Unl
Heat Index: 84°   Visibility: 10mi
Dew Point: 64°   Wind: 13mph
Humidity: 54%   Direction: 70°ENE
Pressure: 29.96"   Gusts: NA
Location:  28.39°N, 96.84°W
Report Text: KPKV 202115Z AUTO 07011KT 10SM SCT049 28/18 A2996 RMK AO2 T02800178
Loading
Personal Weather Stations






























Interactive Weather Map
Tropical Storm Tracking
New forecast layout! Learn more

10-Day Weather Forecast

Advertisements
Track Severe Weather on mobile